Abram, Texas
Current Conditions -  °F | °C
As of 6:53 PM on Wednesday 17 Dec 2014 (Local Time) from KMFE Reporting Station
Broken Clouds Broken Clouds  
Wind Chill: 72°   Ceiling: 2100
Heat Index: 72°   Visibility: 10mi
Dew Point: 66°   Wind: 12mph
Humidity: 81%   Direction: 150°SSE
Pressure: 30"   Gusts: NA
Location:  26.2167°N, 98.325°W
Report Text: KMFE 180053Z 15010KT 10SM BKN021 BKN042 22/19 A3000 RMK AO2 SLP155 T02220189
Loading
Personal Weather Stations






























Interactive Weather Map New forecast layout! Learn more

10-Day Weather Forecast

Advertisements
Track Severe Weather on mobile